• Join FlightAware (Why Join?)
  • Login
  • US Flag 
08:15PM EST


 

Airport Tracker/Info


-or-


 

Live Flight TrackerFlight Track Log ✈ UAL623 ✈ 09-May-2013 ✈ KMCO - KCLE

Flight Track Log - Related Links

Times and Time Zones

All times are in EDT time to prevent confusion due to time zone crossing. See the UAL623 flight status page for this flight to view local times or setup timezone preferences in your user account.

Time Position Orientation Groundspeed Altitude Reporting Facility
EDT Latitude Longitude Course Direction KTS MPH feet Rate Location/Type
11:28AM 28.4500 -81.3167 North 157 181 700  Level Orlando TRACON
11:29AM 28.4667 -81.3167 360° North 158 182 2,300 1,860 Climbing Orlando TRACON
11:30AM 28.5167 -81.3333 344° North 171 197 3,700 1,560 Climbing Orlando TRACON
11:31AM 28.7456 -81.3500 North  Level FlightAware Approximate
11:31AM 28.5833 -81.3333 360° North 280 322 5,300  Level Orlando TRACON
11:32AM 28.8581 -81.3549 350° North  Level FlightAware Approximate
11:32AM 28.6667 -81.3333 360° North 285 328 8,500  Level Orlando TRACON
11:33AM 28.9701 -81.3667 North  Level FlightAware Approximate
11:34AM 28.8492 -81.4278 336° Northwest 310 357 14,200  Level Jacksonville Center
11:35AM 28.9372 -81.4761 334° Northwest 337 388 16,400 2,100 Climbing Jacksonville Center
11:36AM 29.0378 -81.5056 346° North 347 399 18,400 1,920 Climbing Jacksonville Center
11:37AM 29.1383 -81.5375 344° North 366 421 20,300 1,860 Climbing Jacksonville Center
11:38AM 29.2306 -81.5694 343° North 372 428 22,200 1,800 Climbing Jacksonville Center
11:39AM 29.3353 -81.6039 344° North 383 441 23,900 1,560 Climbing Jacksonville Center
11:40AM 29.4400 -81.6406 343° North 388 447 25,400 1,380 Climbing Jacksonville Center
11:41AM 29.5489 -81.6750 345° North 393 452 26,700 1,380 Climbing Jacksonville Center
11:42AM 29.6619 -81.7119 344° North 403 464 28,200 1,260 Climbing Jacksonville Center
11:43AM 29.7728 -81.7489 344° North 408 470 29,300 1,020 Climbing Jacksonville Center
11:44AM 29.8881 -81.7858 344° North 418 481 30,300 900 Climbing Jacksonville Center
11:45AM 30.0072 -81.8083 351° North 423 487 31,200 1,200 Climbing Jacksonville Center
11:46AM 30.1283 -81.8167 357° North 429 494 32,700 1,320 Climbing Jacksonville Center
11:47AM 30.2475 -81.8297 355° North 429 494 33,900 1,080 Climbing Jacksonville Center
11:48AM 30.3686 -81.8406 356° North 424 488 34,900 900 Climbing Jacksonville Center
11:49AM 30.4897 -81.8511 356° North 424 488 35,700 960 Climbing Jacksonville Center
11:50AM 30.6194 -81.8667 354° North 424 488 36,900 600 Climbing Jacksonville Center
11:51AM 30.7344 -81.8775 355° North 424 488 36,900  Level Jacksonville Center
11:52AM 30.8514 -81.8908 354° North 424 488 36,900  Level Jacksonville Center
11:53AM 30.9706 -81.8992 357° North 424 488 36,900  Level Jacksonville Center
11:54AM 31.0853 -81.9100 355° North 424 488 36,900  Level Jacksonville Center
11:55AM 31.2025 -81.9236 354° North 419 482 36,900  Level Jacksonville Center
11:56AM 31.3194 -81.9319 357° North 419 482 36,900  Level Jacksonville Center
11:57AM 31.4364 -81.9406 356° North 424 488 37,000  Climbing Jacksonville Center
11:58AM 31.5408 -81.9542 354° North 424 488 37,000  Level Jacksonville Center
12:00PM 31.8025 -81.9789 355° North 435 501 37,000  Level Atlanta Center
12:01PM 31.9217 -81.9908 355° North 423 487 37,000  Level Atlanta Center
12:02PM 32.0344 -82.0006 356° North 423 487 37,000  Level Atlanta Center
12:03PM 32.1494 -82.0125 355° North 416 479 37,000  Level Atlanta Center
12:04PM 32.2644 -82.0197 357° North 416 479 37,000  Level Atlanta Center
12:05PM 32.3794 -82.0319 355° North 411 473 37,000  Level Atlanta Center
12:06PM 32.4922 -82.0417 356° North 411 473 37,000  Level Atlanta Center
12:07PM 32.6072 -82.0564 354° North 406 467 37,000  Level Atlanta Center
12:08PM 32.7200 -82.0636 357° North 406 467 37,000  Level Atlanta Center
12:09PM 32.8372 -82.0758 355° North 406 467 37,000  Level Atlanta Center
12:10PM 32.9500 -82.0881 355° North 406 467 37,000  Level Atlanta Center
12:11PM 33.0672 -82.1003 355° North 406 467 37,000  Level Atlanta Center
12:12PM 33.1781 -82.1103 356° North 406 467 37,000  Level Atlanta Center
12:13PM 33.2950 -82.1228 355° North 411 473 37,000  Level Atlanta Center
12:14PM 33.4100 -82.1325 356° North 411 473 37,000  Level Atlanta Center
12:15PM 33.5167 -82.1428 355° North 418 481 37,000  Level Atlanta Center
12:16PM 33.6336 -82.1525 356° North 418 481 37,000  Level Atlanta Center
12:17PM 33.7506 -82.1525 360° North 423 487 37,000  Level Atlanta Center
12:18PM 33.8672 -82.1325 North 418 481 37,000  Level Atlanta Center
12:19PM 33.9817 -82.1147 North 418 481 37,000  Level Atlanta Center
12:20PM 34.0981 -82.0947 North 418 481 37,000  Level Atlanta Center
12:21PM 34.2106 -82.0744 North 418 481 37,000  Level Atlanta Center
12:22PM 34.3353 -82.0514 North 411 473 37,000 -60 Level Atlanta Center
12:23PM 34.4478 -82.0336 North 406 467 36,900  Descending Atlanta Center
12:24PM 34.5622 -82.0108 North 406 467 37,000  Climbing Atlanta Center
12:25PM 34.6747 -81.9931 North 406 467 37,000  Level Atlanta Center
12:26PM 34.7911 -81.9697 North 412 474 37,000  Level Atlanta Center
12:27PM 34.9056 -81.9517 North 412 474 37,000  Level Atlanta Center
12:28PM 35.0200 -81.9336 North 412 474 37,000  Level Atlanta Center
12:29PM 35.1325 -81.9258 North 406 467 37,000  Level Atlanta Center
12:30PM 35.2472 -81.9228 North 406 467 37,000 -60 Level Atlanta Center
12:31PM 35.3597 -81.9175 North 401 461 36,900  Descending Atlanta Center
12:32PM 35.4703 -81.9119 North 401 461 37,000  Climbing Atlanta Center
12:33PM 35.5703 -81.9069 North 401 461 37,000  Level Atlanta Center
12:34PM 35.6831 -81.9014 North 401 461 37,000  Level Atlanta Center
12:35PM 35.7997 -81.8958 North 401 461 37,000  Level Atlanta Center
12:36PM 35.9164 -81.8900 North 408 470 37,000  Level Atlanta Center
12:37PM 36.0436 -81.8842 North 414 476 37,000  Level Atlanta Center
12:38PM 36.1622 -81.8758 North 428 493 37,000  Level Atlanta Center
12:39PM 36.2769 -81.8703 North 413 475 37,000 -60 Level Atlanta Center
12:40PM 36.3914 -81.8672 North 408 470 36,900 -60 Descending Atlanta Center
12:41PM 36.5081 -81.8589 North 403 464 36,900  Level Atlanta Center
12:42PM 36.6083 -81.8561 North 403 464 37,000 180 Climbing Atlanta Center
12:44PM 36.7950 -81.8447 North 403 464 37,500 360 Climbing Indianapolis Center
12:45PM 36.9131 -81.8392 North 419 482 38,000 480 Climbing Indianapolis Center
12:46PM 37.0483 -81.8333 North 418 481 38,600 480 Climbing Indianapolis Center
12:47PM 37.1653 -81.8272 North 418 481 39,000 180 Climbing Indianapolis Center
12:48PM 37.2822 -81.8231 North 419 482 39,000  Level Indianapolis Center
12:49PM 37.3981 -81.8172 North 416 479 39,000  Level Indianapolis Center
12:50PM 37.5156 -81.8122 North 422 486 39,000  Level Indianapolis Center
12:51PM 37.6317 -81.8056 North 418 481 39,000  Level Indianapolis Center
12:52PM 37.7697 -81.8000 North 423 487 39,000  Level Indianapolis Center
12:53PM 37.8742 -81.7936 North 422 486 39,000  Level Indianapolis Center
12:54PM 37.9919 -81.7911 North 422 486 39,000  Level Indianapolis Center
12:55PM 38.1319 -81.8117 353° North 419 482 39,000  Level Indianapolis Center
12:56PM 38.2506 -81.8269 354° North 424 488 39,000 -420 Level Indianapolis Center
12:57PM 38.3683 -81.8425 354° North 424 488 38,200 -840 Descending Indianapolis Center
12:58PM 38.4833 -81.8567 354° North 412 474 37,300 -1,740 Descending Indianapolis Center
12:59PM 38.5894 -81.8728 353° North 384 442 34,700 -1,620 Descending Indianapolis Center
01:00PM 38.7017 -81.8875 354° North 397 457 34,000 -360 Descending Indianapolis Center
01:01PM 38.8175 -81.9025 354° North 411 473 34,000  Level Indianapolis Center
01:02PM 38.9311 -81.9175 354° North 407 468 34,000  Level Indianapolis Center
01:03PM 39.0431 -81.9319 354° North 403 464 34,000  Level Indianapolis Center
01:04PM 39.1781 -81.9508 354° North 405 466 34,000  Level Indianapolis Center
01:05PM 39.2892 -81.9644 355° North 399 459 34,000 -420 Level Indianapolis Center
01:06PM 39.3983 -81.9808 353° North 394 453 33,200 -1,980 Descending Indianapolis Center
01:07PM 39.5100 -81.9961 354° North 403 464 30,000 -2,760 Descending Indianapolis Center
01:09PM 39.6247 -82.0097 355° North 412 474 27,500 -2,520 Descending Indianapolis Center
01:10PM 39.7433 -82.0267 354° North 404 465 24,900 -2,220 Descending Indianapolis Center
01:11PM 39.8525 -82.0428 354° North 392 451 23,000 -1,020 Descending Indianapolis Center
01:12PM 39.9603 -82.0581 354° North 389 448 22,900 -60 Descending Indianapolis Center
01:13PM 40.0853 -82.0331 North 398 458 22,900  Level Indianapolis Center
01:14PM 40.1914 -81.9864 19° North 401 461 22,900 -120 Level Indianapolis Center
01:15PM 40.2936 -81.9422 18° North 396 456 22,700 -1,200 Descending Indianapolis Center
01:16PM 40.3967 -81.8956 19° North 389 448 20,500 -2,160 Descending Indianapolis Center
01:16PM 40.4475 -81.8736 18° North 381 438 19,400 -2,100 Descending Cleveland Center
01:17PM 40.5439 -81.8289 19° North 376 433 17,400 -2,160 Descending Cleveland Center
01:18PM 40.6383 -81.7869 19° North 360 414 15,100 -2,460 Descending Cleveland Center
01:19PM 40.7303 -81.7447 19° North 350 403 12,500 -2,400 Descending Cleveland Center
01:20PM 40.8286 -81.7136 13° North 350 403 10,400 -1,260 Descending Cleveland Center
01:21PM 40.9139 -81.7397 347° North 321 369 10,000 -240 Descending Cleveland Center
01:22PM 40.9844 -81.7822 336° Northwest 289 333 10,000  Level Cleveland Center
01:23PM 41.0031 -81.7964 330° Northwest 274 315 10,000 -240 Level Cleveland Center
01:23PM 41.0547 -81.8222 339° North 279 321 9,800 -720 Descending Cleveland Center
01:24PM 41.0714 -81.8336 333° Northwest 274 315 9,300 -1,620 Descending Cleveland Center
01:24PM 41.1253 -81.8594 340° North 273 314 8,200 -1,620 Descending Cleveland Center
01:25PM 41.2039 -81.9161 332° Northwest 266 306 6,200 -1,740 Descending Cleveland Center
01:26PM 41.2472 -81.9528 328° Northwest 262 302 4,800 -1,500 Descending Cleveland Center
01:27PM 41.2697 -81.9728 326° Northwest 235 270 4,600 -840 Descending Cleveland Center
01:27PM 41.2986 -81.9983 326° Northwest 243 280 4,000 -1,200 Descending Cleveland Center
01:28PM 41.3217 -81.9958 North 193 222 3,400 -1,440 Descending Cleveland Center
01:28PM 41.3408 -81.9633 52° Northeast 157 181 2,600 -1,200 Descending Cleveland Center
01:29PM 41.3536 -81.9469 44° Northeast 178 205 2,200 -1,200 Descending Cleveland Center